createdAt,value
2018-10-02T00:01:50.779Z,101815.42
2018-10-02T00:04:26.592Z,101811.52
2018-10-02T00:06:57.548Z,101801.00
2018-10-02T00:12:25.480Z,101801.30
2018-10-02T00:14:54.385Z,101797.94
2018-10-02T00:17:23.268Z,101797.83
2018-10-02T00:19:52.182Z,101787.88
2018-10-02T00:22:26.419Z,101788.64
2018-10-02T00:24:57.341Z,101790.83
2018-10-02T00:27:26.427Z,101794.38
2018-10-02T00:29:59.425Z,101789.60
2018-10-02T00:32:35.733Z,101784.86
2018-10-02T00:35:04.651Z,101783.16
2018-10-02T00:37:33.532Z,101789.37
2018-10-02T00:40:02.413Z,101789.42
2018-10-02T00:42:31.319Z,101779.09
2018-10-02T00:45:00.206Z,101775.84
2018-10-02T00:47:32.390Z,101770.78
2018-10-02T00:50:07.762Z,101768.13
2018-10-02T00:52:36.668Z,101765.23
2018-10-02T00:55:05.855Z,101762.77
2018-10-02T01:00:34.240Z,101769.57
2018-10-02T01:03:06.699Z,101770.30
2018-10-02T01:05:35.805Z,101772.45
2018-10-02T01:08:04.712Z,101771.66
2018-10-02T01:10:35.648Z,101765.08
2018-10-02T01:13:11.932Z,101769.99
2018-10-02T01:15:44.549Z,101770.41
2018-10-02T01:18:13.490Z,101768.23
2018-10-02T01:20:44.373Z,101759.49
2018-10-02T01:23:18.336Z,101765.70
2018-10-02T01:25:47.210Z,101766.89
2018-10-02T01:28:25.979Z,101762.63
2018-10-02T01:30:59.782Z,101763.70
2018-10-02T01:33:32.533Z,101759.19
2018-10-02T01:36:02.518Z,101761.77
2018-10-02T01:38:37.080Z,101757.59
2018-10-02T01:41:09.590Z,101754.31
2018-10-02T01:43:38.493Z,101744.34
2018-10-02T01:46:07.852Z,101742.70
2018-10-02T01:48:36.804Z,101741.87
2018-10-02T01:51:16.356Z,101744.34
2018-10-02T01:53:52.365Z,101733.69
2018-10-02T01:56:21.270Z,101735.08
2018-10-02T01:58:50.174Z,101737.02
2018-10-02T02:01:21.147Z,101729.70
2018-10-02T02:03:51.066Z,101726.28
2018-10-02T02:06:33.497Z,101726.26
2018-10-02T02:09:02.416Z,101721.31
2018-10-02T02:11:32.427Z,101716.84
2018-10-02T02:14:17.397Z,101714.84
2018-10-02T02:16:49.528Z,101712.16
2018-10-02T02:19:19.542Z,101710.14
2018-10-02T02:21:48.659Z,101704.37
2018-10-02T02:24:17.647Z,101705.63
2018-10-02T02:26:46.557Z,101702.30
2018-10-02T02:29:15.528Z,101693.99
2018-10-02T02:31:45.530Z,101687.61
2018-10-02T02:34:14.568Z,101687.67
2018-10-02T02:36:43.512Z,101687.02
2018-10-02T02:39:22.761Z,101687.23
2018-10-02T02:41:51.685Z,101682.75
2018-10-02T02:44:20.572Z,101675.38
2018-10-02T02:46:49.439Z,101677.80
2018-10-02T02:49:23.888Z,101675.29
2018-10-02T02:51:55.911Z,101671.25
2018-10-02T02:54:24.845Z,101673.33
2018-10-02T02:56:53.796Z,101667.08
2018-10-02T02:59:22.822Z,101663.63
2018-10-02T03:01:51.712Z,101662.17
2018-10-02T03:04:27.460Z,101651.46
2018-10-02T03:06:56.356Z,101644.22
2018-10-02T03:09:29.519Z,101638.25
2018-10-02T03:11:58.478Z,101635.65
2018-10-02T03:14:32.310Z,101641.05
2018-10-02T03:17:01.374Z,101631.06
2018-10-02T03:19:30.324Z,101634.91
2018-10-02T03:22:03.474Z,101635.23
2018-10-02T03:27:26.444Z,101620.98
2018-10-02T03:30:06.632Z,101615.08
2018-10-02T03:32:35.624Z,101619.09
2018-10-02T03:35:04.800Z,101633.87
2018-10-02T03:37:51.221Z,101635.42
2018-10-02T03:40:20.275Z,101623.02
2018-10-02T03:42:50.282Z,101602.13
2018-10-02T03:45:20.287Z,101593.30
2018-10-02T03:47:52.776Z,101597.33
2018-10-02T03:50:27.947Z,101590.72
2018-10-02T03:52:56.958Z,101596.41
2018-10-02T03:55:29.074Z,101584.77
2018-10-02T03:58:20.175Z,101586.34
2018-10-02T04:00:50.266Z,101586.30
2018-10-02T04:03:24.338Z,101584.63
2018-10-02T04:05:53.252Z,101574.58
2018-10-02T04:08:24.165Z,101572.25
2018-10-02T04:10:55.153Z,101557.27
2018-10-02T04:13:27.448Z,101555.06
2018-10-02T04:15:56.390Z,101556.10
2018-10-02T04:18:28.320Z,101547.85
2018-10-02T04:20:57.419Z,101558.94
2018-10-02T04:23:27.343Z,101550.12
2018-10-02T04:25:59.758Z,101534.19
2018-10-02T04:28:40.165Z,101524.00
2018-10-02T04:31:21.819Z,101513.47
2018-10-02T04:33:54.180Z,101510.71
2018-10-02T04:36:34.990Z,101514.92
2018-10-02T04:39:07.608Z,101516.69
2018-10-02T04:44:20.396Z,101510.57
2018-10-02T04:47:00.811Z,101510.19
2018-10-02T04:49:42.964Z,101515.39
2018-10-02T04:55:26.218Z,101518.69
2018-10-02T05:00:52.372Z,101518.30
2018-10-02T05:03:41.104Z,101517.66
2018-10-02T05:06:13.844Z,101519.92
2018-10-02T05:08:44.566Z,101515.45
2018-10-02T05:11:13.460Z,101503.98
2018-10-02T05:13:42.450Z,101491.84
2018-10-02T05:16:12.368Z,101494.03
2018-10-02T05:21:39.352Z,101503.56
2018-10-02T05:24:31.944Z,101498.49
2018-10-02T05:27:05.469Z,101491.55
2018-10-02T05:29:34.628Z,101483.58
2018-10-02T05:32:09.091Z,101479.14
2018-10-02T05:34:56.995Z,101469.83
2018-10-02T05:37:26.976Z,101474.68
2018-10-02T05:40:00.373Z,101477.06
2018-10-02T05:42:53.214Z,101483.61
2018-10-02T05:45:26.742Z,101484.02
2018-10-02T05:48:00.608Z,101480.16
2018-10-02T05:50:37.953Z,101476.95
2018-10-02T05:53:19.997Z,101468.47
2018-10-02T05:55:49.939Z,101463.81
2018-10-02T05:58:20.984Z,101453.95
2018-10-02T06:00:49.940Z,101449.61
2018-10-02T06:03:18.914Z,101442.67
2018-10-02T06:05:47.889Z,101437.22
2018-10-02T06:08:17.883Z,101438.02
2018-10-02T06:10:50.789Z,101435.34
2018-10-02T06:13:25.805Z,101433.89
2018-10-02T06:16:17.045Z,101426.86
2018-10-02T06:18:59.694Z,101422.09
2018-10-02T06:21:41.232Z,101422.91
2018-10-02T06:24:15.229Z,101428.91
2018-10-02T06:26:44.816Z,101429.64
2018-10-02T06:29:20.110Z,101420.23
2018-10-02T06:31:52.873Z,101423.63
2018-10-02T06:34:22.286Z,101426.32
2018-10-02T06:36:58.750Z,101424.66
2018-10-02T06:39:33.751Z,101420.63
2018-10-02T06:42:03.529Z,101413.61
2018-10-02T06:44:43.657Z,101413.81
2018-10-02T06:47:34.776Z,101399.52
2018-10-02T06:50:10.364Z,101403.63
2018-10-02T06:52:41.647Z,101394.77
2018-10-02T06:55:23.767Z,101392.48
2018-10-02T06:58:06.638Z,101396.73
2018-10-02T07:00:40.047Z,101386.37
2018-10-02T07:03:13.207Z,101376.86
2018-10-02T07:05:53.320Z,101391.25
2018-10-02T07:08:22.411Z,101375.19
2018-10-02T07:10:51.479Z,101379.73
2018-10-02T07:13:37.404Z,101367.85
2018-10-02T07:16:08.611Z,101360.62
2018-10-02T07:18:43.209Z,101361.31
2018-10-02T07:21:15.698Z,101351.80
2018-10-02T07:23:48.182Z,101353.57
2018-10-02T07:26:21.833Z,101352.83
2018-10-02T07:28:54.123Z,101357.17
2018-10-02T07:31:23.722Z,101358.13
2018-10-02T07:33:53.814Z,101361.55
2018-10-02T07:36:25.782Z,101360.47
2018-10-02T07:39:00.192Z,101363.02
2018-10-02T07:41:31.570Z,101365.67
2018-10-02T07:44:06.812Z,101367.12
2018-10-02T07:46:37.637Z,101381.80
2018-10-02T07:49:11.223Z,101374.24
2018-10-02T07:51:40.565Z,101378.08
2018-10-02T07:54:11.759Z,101374.64
2018-10-02T07:56:51.208Z,101380.10
2018-10-02T07:59:22.129Z,101374.01
2018-10-02T08:01:52.136Z,101358.91
2018-10-02T08:04:25.130Z,101364.82
2018-10-02T08:07:06.680Z,101363.79
2018-10-02T08:09:36.555Z,101361.89
2018-10-02T08:12:10.726Z,101362.72
2018-10-02T08:14:41.659Z,101363.98
2018-10-02T08:17:20.617Z,101356.38
2018-10-02T08:20:05.927Z,101360.24
2018-10-02T08:22:34.870Z,101365.41
2018-10-02T08:25:07.572Z,101356.43
2018-10-02T08:27:38.645Z,101364.98
2018-10-02T08:30:08.088Z,101376.25
2018-10-02T08:32:42.853Z,101367.74
2018-10-02T08:35:16.477Z,101361.39
2018-10-02T08:37:46.447Z,101360.62
2018-10-02T08:43:16.946Z,101358.55
2018-10-02T08:45:45.888Z,101369.11
2018-10-02T08:48:14.870Z,101365.48
2018-10-02T08:50:51.458Z,101353.23
2018-10-02T08:53:20.403Z,101354.47
2018-10-02T08:55:49.293Z,101358.20
2018-10-02T08:58:20.261Z,101350.52
2018-10-02T09:00:53.328Z,101350.48
2018-10-02T09:03:34.334Z,101350.35
2018-10-02T09:06:03.320Z,101346.00
2018-10-02T09:08:32.348Z,101339.48
2018-10-02T09:11:01.305Z,101335.42
2018-10-02T09:13:35.278Z,101333.59
2018-10-02T09:16:04.434Z,101339.12
2018-10-02T09:18:33.344Z,101335.23
2018-10-02T09:21:02.285Z,101340.78
2018-10-02T09:23:31.284Z,101336.91
2018-10-02T09:26:19.064Z,101336.70
2018-10-02T09:28:56.204Z,101335.50
2018-10-02T09:31:42.743Z,101335.78
2018-10-02T09:34:29.058Z,101320.91
2018-10-02T09:37:06.591Z,101313.45
2018-10-02T09:39:48.837Z,101317.77
2018-10-02T09:42:39.145Z,101322.32
2018-10-02T09:45:10.292Z,101323.19
2018-10-02T09:47:42.294Z,101321.20
2018-10-02T09:50:11.297Z,101327.54
2018-10-02T09:52:42.203Z,101332.91
2018-10-02T09:55:23.400Z,101311.49
2018-10-02T09:58:03.079Z,101320.80
2018-10-02T10:00:37.597Z,101312.00
2018-10-02T10:03:06.613Z,101317.44
2018-10-02T10:05:58.542Z,101293.38
2018-10-02T10:08:32.313Z,101293.59
2018-10-02T10:11:01.297Z,101287.72
2018-10-02T10:13:30.274Z,101279.32
2018-10-02T10:15:59.317Z,101283.80
2018-10-02T10:18:28.315Z,101283.90
2018-10-02T10:20:57.486Z,101290.31
2018-10-02T10:23:28.388Z,101289.12
2018-10-02T10:28:54.386Z,101274.16
2018-10-02T10:31:24.270Z,101282.33
2018-10-02T10:33:53.266Z,101282.33
2018-10-02T10:36:22.290Z,101283.40
2018-10-02T10:38:51.253Z,101271.27
2018-10-02T10:41:20.251Z,101271.88
2018-10-02T10:43:49.260Z,101280.45
2018-10-02T10:46:19.122Z,101287.81
2018-10-02T10:48:50.077Z,101286.97
2018-10-02T10:54:14.489Z,101269.83
2018-10-02T10:56:56.164Z,101277.28
2018-10-02T10:59:36.382Z,101289.41
2018-10-02T11:02:05.390Z,101286.84
2018-10-02T11:04:53.474Z,101264.53
2018-10-02T11:07:26.085Z,101281.45
2018-10-02T11:10:02.238Z,101283.48
2018-10-02T11:12:31.209Z,101283.58
2018-10-02T11:15:00.196Z,101282.14
2018-10-02T11:17:40.883Z,101280.69
2018-10-02T11:20:23.980Z,101277.97
2018-10-02T11:23:05.175Z,101277.05
2018-10-02T11:25:40.723Z,101286.17
2018-10-02T11:28:22.090Z,101279.84
2018-10-02T11:30:59.584Z,101283.20
2018-10-02T11:33:48.574Z,101283.08
2018-10-02T11:36:25.600Z,101270.67
2018-10-02T11:38:58.084Z,101275.22
2018-10-02T11:41:27.281Z,101268.30
2018-10-02T11:43:56.377Z,101265.96
2018-10-02T11:46:29.318Z,101259.09
2018-10-02T11:49:05.868Z,101258.50
2018-10-02T11:51:41.312Z,101252.11
2018-10-02T11:54:24.646Z,101248.22
2018-10-02T11:57:08.223Z,101240.53
2018-10-02T11:59:37.635Z,101242.50
2018-10-02T12:02:10.283Z,101252.96
2018-10-02T12:04:41.267Z,101254.67
2018-10-02T12:07:10.181Z,101249.10
2018-10-02T12:09:39.207Z,101245.09
2018-10-02T12:12:08.246Z,101237.41
2018-10-02T12:14:37.217Z,101236.02
2018-10-02T12:17:06.159Z,101241.17
2018-10-02T12:19:39.708Z,101244.00
2018-10-02T12:22:09.748Z,101227.18
2018-10-02T12:24:39.872Z,101229.73
2018-10-02T12:27:10.067Z,101217.38
2018-10-02T12:29:39.052Z,101215.06
2018-10-02T12:32:17.552Z,101222.27
2018-10-02T12:34:49.969Z,101220.48
2018-10-02T12:37:20.945Z,101223.34
2018-10-02T12:39:51.896Z,101214.19
2018-10-02T12:42:26.493Z,101219.44
2018-10-02T12:45:00.329Z,101216.29
2018-10-02T12:47:29.292Z,101214.44
2018-10-02T12:50:04.193Z,101219.91
2018-10-02T12:52:33.247Z,101215.64
2018-10-02T12:55:09.602Z,101216.56
2018-10-02T12:57:39.620Z,101218.73
2018-10-02T13:00:08.731Z,101220.47
2018-10-02T13:02:47.844Z,101219.11
2018-10-02T13:05:24.427Z,101222.48
2018-10-02T13:07:57.328Z,101226.61
2018-10-02T13:10:28.877Z,101229.38
2018-10-02T13:13:03.161Z,101223.72
2018-10-02T13:15:33.103Z,101221.02
2018-10-02T13:18:09.955Z,101231.05
2018-10-02T13:20:57.208Z,101237.37
2018-10-02T13:23:27.435Z,101238.34
2018-10-02T13:25:56.419Z,101239.46
2018-10-02T13:28:27.343Z,101236.92
2018-10-02T13:31:00.211Z,101235.21
2018-10-02T13:33:29.219Z,101236.81
2018-10-02T13:36:00.170Z,101250.91
2018-10-02T13:38:31.181Z,101249.59
2018-10-02T13:41:02.328Z,101248.21
2018-10-02T13:43:32.962Z,101248.09
2018-10-02T13:46:03.487Z,101237.44
2018-10-02T13:48:38.747Z,101241.64
2018-10-02T13:51:08.331Z,101249.36
2018-10-02T13:53:41.064Z,101259.27
2018-10-02T13:56:15.109Z,101259.34
2018-10-02T13:58:44.473Z,101257.77
2018-10-02T14:01:16.941Z,101253.63
2018-10-02T14:03:45.930Z,101255.28
2018-10-02T14:06:21.597Z,101251.23
2018-10-02T14:08:58.872Z,101249.88
2018-10-02T14:11:45.037Z,101267.73
2018-10-02T14:14:24.511Z,101252.88
2018-10-02T14:16:55.450Z,101257.54
2018-10-02T14:19:41.752Z,101246.57
2018-10-02T14:22:21.146Z,101248.45
2018-10-02T14:24:51.232Z,101246.48
2018-10-02T14:27:40.405Z,101243.94
2018-10-02T14:30:28.245Z,101242.34
2018-10-02T14:33:02.212Z,101248.80
2018-10-02T14:35:33.141Z,101240.38
2018-10-02T14:38:04.068Z,101246.50
2018-10-02T14:40:39.125Z,101242.45
2018-10-02T14:43:08.131Z,101238.88
2018-10-02T14:45:37.105Z,101241.57
2018-10-02T14:48:06.190Z,101236.97
2018-10-02T14:50:36.452Z,101239.06
2018-10-02T14:53:11.231Z,101236.55
2018-10-02T14:55:40.239Z,101241.48
2018-10-02T14:58:17.195Z,101236.92
2018-10-02T15:01:00.237Z,101243.44
2018-10-02T15:03:35.500Z,101241.09
2018-10-02T15:06:04.476Z,101241.58
2018-10-02T15:08:34.512Z,101245.98
2018-10-02T15:14:00.405Z,101245.84
2018-10-02T15:16:29.671Z,101254.47
2018-10-02T15:19:05.515Z,101250.89
2018-10-02T15:21:35.674Z,101256.91
2018-10-02T15:24:16.537Z,101258.70
2018-10-02T15:26:51.357Z,101258.70
2018-10-02T15:29:25.066Z,101260.30
2018-10-02T15:32:06.660Z,101256.30
2018-10-02T15:34:46.893Z,101253.23
2018-10-02T15:37:26.697Z,101247.67
2018-10-02T15:40:06.460Z,101237.26
2018-10-02T15:42:53.565Z,101238.07
2018-10-02T15:45:29.740Z,101239.06
2018-10-02T15:48:02.221Z,101245.89
2018-10-02T15:50:31.121Z,101225.34
2018-10-02T15:53:12.898Z,101250.06
2018-10-02T15:55:41.945Z,101238.88
2018-10-02T15:58:10.952Z,101245.44
2018-10-02T16:00:39.761Z,101264.03
2018-10-02T16:03:25.519Z,101257.08
2018-10-02T16:06:04.829Z,101258.60
2018-10-02T16:08:33.937Z,101259.27
2018-10-02T16:11:02.853Z,101256.89
2018-10-02T16:13:31.729Z,101265.44
2018-10-02T16:16:00.659Z,101275.52
2018-10-02T16:18:29.697Z,101279.28
2018-10-02T16:20:58.624Z,101278.69
2018-10-02T16:23:27.917Z,101283.22
2018-10-02T16:25:57.289Z,101290.80
2018-10-02T16:28:34.011Z,101294.87
2018-10-02T16:31:04.451Z,101291.77
2018-10-02T16:33:33.920Z,101289.53
2018-10-02T16:36:04.512Z,101292.51
2018-10-02T16:38:35.567Z,101301.06
2018-10-02T16:41:10.369Z,101308.65
2018-10-02T16:43:43.370Z,101317.98
2018-10-02T16:46:17.210Z,101318.31
2018-10-02T16:48:46.871Z,101317.50
2018-10-02T16:51:22.801Z,101321.50
2018-10-02T16:53:54.274Z,101320.54
2018-10-02T16:59:33.070Z,101327.31
2018-10-02T17:02:14.787Z,101334.02
2018-10-02T17:04:43.800Z,101336.61
2018-10-02T17:07:16.388Z,101340.22
2018-10-02T17:09:47.209Z,101347.30
2018-10-02T17:12:17.672Z,101352.23
2018-10-02T17:14:51.878Z,101361.41
2018-10-02T17:17:20.971Z,101355.36
2018-10-02T17:20:02.495Z,101360.41
2018-10-02T17:22:31.925Z,101368.05
2018-10-02T17:25:02.676Z,101368.53
2018-10-02T17:27:31.687Z,101368.23
2018-10-02T17:30:00.715Z,101374.68
2018-10-02T17:32:33.576Z,101373.13
2018-10-02T17:35:07.623Z,101370.80
2018-10-02T17:37:43.022Z,101374.24
2018-10-02T17:40:13.995Z,101385.55
2018-10-02T17:42:44.916Z,101384.50
2018-10-02T17:45:26.834Z,101388.90
2018-10-02T17:48:09.748Z,101396.34
2018-10-02T17:50:42.694Z,101402.13
2018-10-02T17:53:12.712Z,101396.70
2018-10-02T17:55:43.634Z,101405.34
2018-10-02T17:58:13.532Z,101406.19
2018-10-02T18:00:47.753Z,101411.20
2018-10-02T18:03:21.166Z,101414.66
2018-10-02T18:05:52.786Z,101414.58
2018-10-02T18:08:22.437Z,101422.91
2018-10-02T18:10:55.701Z,101416.75
2018-10-02T18:13:28.453Z,101419.52
2018-10-02T18:16:03.767Z,101425.00
2018-10-02T18:18:33.185Z,101421.45
2018-10-02T18:21:05.754Z,101416.75
2018-10-02T18:23:45.776Z,101426.30
2018-10-02T18:26:19.169Z,101427.87
2018-10-02T18:28:49.692Z,101425.61
2018-10-02T18:34:16.476Z,101433.02
2018-10-02T18:36:52.570Z,101430.59
2018-10-02T18:39:34.238Z,101444.02
2018-10-02T18:42:14.251Z,101432.15
2018-10-02T18:44:47.139Z,101439.42
2018-10-02T18:47:18.623Z,101435.05
2018-10-02T18:49:51.269Z,101438.06
2018-10-02T18:52:21.650Z,101435.02
2018-10-02T18:54:50.631Z,101429.20
2018-10-02T18:57:22.800Z,101429.51
2018-10-02T18:59:54.864Z,101438.06
2018-10-02T19:02:27.742Z,101430.42
2018-10-02T19:05:06.904Z,101443.18
2018-10-02T19:07:39.305Z,101435.36
2018-10-02T19:10:08.617Z,101446.16
2018-10-02T19:12:37.749Z,101448.62
2018-10-02T19:15:06.973Z,101445.31
2018-10-02T19:17:39.790Z,101454.78
2018-10-02T19:20:21.577Z,101461.32
2018-10-02T19:22:52.594Z,101453.59
2018-10-02T19:25:30.679Z,101459.69
2018-10-02T19:28:02.989Z,101464.84
2018-10-02T19:30:37.299Z,101471.19
2018-10-02T19:33:16.252Z,101476.89
2018-10-02T19:35:48.805Z,101470.19
2018-10-02T19:38:30.167Z,101465.95
2018-10-02T19:41:04.144Z,101465.69
2018-10-02T19:43:34.387Z,101474.66
2018-10-02T19:46:09.440Z,101475.13
2018-10-02T19:48:39.183Z,101474.93
2018-10-02T19:51:19.558Z,101468.96
2018-10-02T19:54:01.233Z,101473.91
2018-10-02T19:56:37.712Z,101477.23
2018-10-02T19:59:16.730Z,101475.27
2018-10-02T20:01:46.305Z,101472.13
2018-10-02T20:04:15.668Z,101483.84
2018-10-02T20:07:02.437Z,101483.08
2018-10-02T20:09:36.446Z,101473.03
2018-10-02T20:12:09.605Z,101471.98
2018-10-02T20:14:44.823Z,101484.88
2018-10-02T20:17:14.461Z,101483.03
2018-10-02T20:19:48.150Z,101478.50
2018-10-02T20:22:21.641Z,101484.89
2018-10-02T20:24:50.776Z,101486.70
2018-10-02T20:27:26.671Z,101483.31
2018-10-02T20:29:59.709Z,101489.02
2018-10-02T20:32:34.206Z,101491.66
2018-10-02T20:35:11.243Z,101492.78
2018-10-02T20:37:51.271Z,101507.58
2018-10-02T20:40:35.118Z,101513.14
2018-10-02T20:43:08.590Z,101503.21
2018-10-02T20:45:41.548Z,101505.48
2018-10-02T20:48:12.655Z,101504.09
2018-10-02T20:50:41.793Z,101494.64
2018-10-02T20:53:15.149Z,101507.73
2018-10-02T20:55:48.000Z,101502.91
2018-10-02T20:58:17.001Z,101506.80
2018-10-02T21:00:45.968Z,101508.31
2018-10-02T21:03:15.001Z,101506.45
2018-10-02T21:05:45.907Z,101501.70
2018-10-02T21:08:17.989Z,101501.00
2018-10-02T21:10:48.086Z,101491.46
2018-10-02T21:13:21.022Z,101499.73
2018-10-02T21:15:51.689Z,101502.28
2018-10-02T21:18:21.753Z,101503.86
2018-10-02T21:20:51.312Z,101509.81
2018-10-02T21:23:27.662Z,101504.09
2018-10-02T21:25:59.135Z,101502.32
2018-10-02T21:28:46.014Z,101501.62
2018-10-02T21:31:16.097Z,101495.75
2018-10-02T21:33:46.181Z,101500.85
2018-10-02T21:36:18.796Z,101498.38
2018-10-02T21:38:48.747Z,101492.86
2018-10-02T21:41:36.158Z,101496.91
2018-10-02T21:44:15.549Z,101499.08
2018-10-02T21:46:47.761Z,101495.09
2018-10-02T21:49:21.721Z,101490.73
2018-10-02T21:51:58.320Z,101490.97
2018-10-02T21:54:30.672Z,101495.56
2018-10-02T21:57:04.585Z,101492.70
2018-10-02T22:02:43.034Z,101496.38
2018-10-02T22:05:25.460Z,101495.67
2018-10-02T22:07:55.450Z,101496.38
2018-10-02T22:10:31.874Z,101506.26
2018-10-02T22:13:10.945Z,101494.77
2018-10-02T22:15:40.906Z,101496.94
2018-10-02T22:18:09.970Z,101503.61
2018-10-02T22:20:44.630Z,101501.80
2018-10-02T22:23:14.691Z,101501.54
2018-10-02T22:25:51.870Z,101499.57
2018-10-02T22:28:20.890Z,101497.25
2018-10-02T22:30:50.572Z,101494.55
2018-10-02T22:33:29.823Z,101491.31
2018-10-02T22:35:58.847Z,101489.88
2018-10-02T22:38:32.395Z,101485.83
2018-10-02T22:41:01.469Z,101493.04
2018-10-02T22:43:31.572Z,101501.37
2018-10-02T22:46:04.903Z,101492.08
2018-10-02T22:48:33.848Z,101495.98
2018-10-02T22:51:05.197Z,101493.90
2018-10-02T22:53:34.261Z,101498.42
2018-10-02T22:58:57.025Z,101500.34
2018-10-02T23:01:27.075Z,101496.88
2018-10-02T23:03:56.193Z,101492.70
2018-10-02T23:06:28.520Z,101488.77
2018-10-02T23:09:08.644Z,101488.84
2018-10-02T23:14:37.446Z,101491.04
2018-10-02T23:17:11.142Z,101492.23
2018-10-02T23:19:41.281Z,101495.20
2018-10-02T23:22:13.676Z,101503.55
2018-10-02T23:24:42.644Z,101505.30
2018-10-02T23:27:24.027Z,101512.90
2018-10-02T23:30:03.880Z,101514.91
2018-10-02T23:32:32.894Z,101509.81
2018-10-02T23:35:01.828Z,101505.06
2018-10-02T23:37:31.785Z,101508.53
2018-10-02T23:40:05.615Z,101515.22
2018-10-02T23:42:41.690Z,101518.19
2018-10-02T23:45:11.641Z,101519.62
2018-10-02T23:47:50.688Z,101518.80
2018-10-02T23:50:26.647Z,101525.17
2018-10-02T23:53:07.698Z,101521.41
2018-10-02T23:55:37.097Z,101522.53
2018-10-02T23:58:10.521Z,101531.36
